Time;durP1;ratioP1;P1;durP2;ratioP2;P2;SDS_P1;SDS_P2;PMS_P1;PMS_P2;Temp;Humidity;BMP_temperature;BMP_pressure;BME280_temperature;BME280_humidity;BME280_pressure;Samples;Min_cycle;Max_cycle;Signal;HPM_P1;HPM_P2
2023/04/10 00:02:11;;;;;;;12.77;9.97;;;;;;;9.43;51.04;99408.25;6999036;28;20332;-77
2023/04/10 00:05:32;;;;;;;13.37;10.50;;;;;;;9.16;51.85;99401.59;6999637;28;20641;-79
2023/04/10 00:08:54;;;;;;;13.40;11.40;;;;;;;9.26;51.56;99406.72;6999599;28;20251;-77
2023/04/10 00:12:15;;;;;;;14.53;11.43;;;;;;;9.42;51.17;99407.44;6998120;28;20274;-78
2023/04/10 00:15:38;;;;;;;15.53;11.27;;;;;;;9.08;51.46;99400.84;6998656;28;20294;-77
2023/04/10 00:19:00;;;;;;;14.10;10.77;;;;;;;9.33;51.58;99405.00;6999249;28;20296;-78
2023/04/10 00:22:21;;;;;;;13.87;10.57;;;;;;;9.38;51.42;99392.66;6997192;28;20206;-77
2023/04/10 00:25:43;;;;;;;13.50;10.20;;;;;;;9.23;51.64;99390.97;6998456;28;20309;-77
2023/04/10 00:29:05;;;;;;;12.80;9.90;;;;;;;9.26;51.67;99394.13;6998521;28;20213;-77
2023/04/10 00:32:28;;;;;;;11.67;9.70;;;;;;;8.92;52.48;99390.25;6998196;28;20305;-78
2023/04/10 00:35:49;;;;;;;11.80;9.70;;;;;;;8.92;51.69;99392.94;6998480;28;20221;-77
2023/04/10 00:39:11;;;;;;;10.67;9.00;;;;;;;8.98;51.93;99389.50;6998070;28;20220;-77
2023/04/10 00:42:33;;;;;;;10.83;9.30;;;;;;;8.63;53.19;99390.13;6997748;28;20577;-79
2023/04/10 00:45:54;;;;;;;14.47;10.57;;;;;;;8.66;52.67;99381.69;6998311;28;20233;-77
2023/04/10 00:49:18;;;;;;;11.63;9.30;;;;;;;8.39;52.74;99379.53;6997943;28;20810;-78
2023/04/10 00:52:39;;;;;;;13.20;9.93;;;;;;;8.27;54.11;99385.47;6997438;28;20239;-78
2023/04/10 00:56:01;;;;;;;12.63;10.00;;;;;;;8.33;54.37;99380.25;6992777;28;20220;-79
2023/04/10 00:59:23;;;;;;;11.03;9.00;;;;;;;8.52;53.74;99377.09;6997836;28;20630;-79
2023/04/10 01:02:44;;;;;;;12.37;9.97;;;;;;;8.41;53.81;99376.63;6997345;28;20209;-80
2023/04/10 01:06:13;;;;;;;11.13;9.27;;;;;;;8.52;53.88;99365.50;6997201;28;20229;-78
2023/04/10 01:09:47;;;;;;;13.00;9.40;;;;;;;8.59;53.07;99371.81;6997022;28;20193;-79
2023/04/10 01:13:13;;;;;;;14.67;10.77;;;;;;;8.20;53.45;99360.34;6997364;28;20287;-79
2023/04/10 01:16:36;;;;;;;11.70;9.47;;;;;;;8.38;53.91;99368.94;6997589;28;20253;-80
2023/04/10 01:20:02;;;;;;;12.40;9.67;;;;;;;8.54;53.62;99379.59;6996764;28;20213;-78
2023/04/10 01:23:50;;;;;;;13.47;9.80;;;;;;;8.64;53.52;99381.03;6996150;28;20222;-79
2023/04/10 01:27:22;;;;;;;11.80;9.97;;;;;;;8.54;53.45;99380.41;6993928;28;20205;-79
2023/04/10 01:30:47;;;;;;;13.20;9.87;;;;;;;8.55;52.65;99383.97;6969048;28;20214;-78
2023/04/10 01:34:12;;;;;;;13.50;10.00;;;;;;;8.59;52.87;99374.50;6981908;28;20296;-79
2023/04/10 01:37:38;;;;;;;13.03;10.30;;;;;;;8.27;53.58;99391.69;6973610;28;20736;-78
2023/04/10 01:41:00;;;;;;;11.23;9.60;;;;;;;8.27;53.87;99388.16;6969294;28;20208;-78
2023/04/10 01:44:25;;;;;;;12.07;10.00;;;;;;;8.36;54.11;99387.09;6969525;28;20360;-79
2023/04/10 01:47:48;;;;;;;12.97;10.03;;;;;;;8.48;53.69;99378.44;6969609;28;20206;-78
2023/04/10 01:51:10;;;;;;;12.97;10.20;;;;;;;8.49;53.31;99373.91;6971035;28;20597;-79
2023/04/10 01:54:32;;;;;;;13.90;10.43;;;;;;;8.49;53.46;99390.06;6968546;28;20229;-78
2023/04/10 01:57:54;;;;;;;13.00;10.30;;;;;;;8.65;52.30;99388.06;6968881;28;20297;-79
2023/04/10 02:01:19;;;;;;;11.63;9.47;;;;;;;8.61;52.71;99385.94;6968252;28;20340;-78
2023/04/10 02:04:45;;;;;;;11.93;9.27;;;;;;;8.67;52.42;99379.84;6969010;28;20260;-79
2023/04/10 02:08:12;;;;;;;11.77;9.60;;;;;;;8.11;52.34;99324.59;6969374;28;20190;-79
2023/04/10 02:11:38;;;;;;;13.00;9.70;;;;;;;8.07;53.48;99374.28;6968452;28;20190;-78
2023/04/10 02:15:01;;;;;;;12.43;10.33;;;;;;;8.19;52.97;99346.03;6968759;28;20287;-78
2023/04/10 02:18:24;;;;;;;10.03;8.80;;;;;;;8.22;53.59;99358.28;6969282;28;20220;-79
2023/04/10 02:21:47;;;;;;;12.67;9.07;;;;;;;8.14;53.61;99361.00;6966394;28;20350;-78
2023/04/10 02:25:09;;;;;;;11.63;9.07;;;;;;;7.69;53.32;99313.41;6968940;28;20241;-79
2023/04/10 02:28:31;;;;;;;11.80;8.87;;;;;;;8.07;53.15;99358.19;6968982;28;20214;-79
2023/04/10 02:31:52;;;;;;;12.20;8.97;;;;;;;8.20;52.92;99363.03;6967632;28;20221;-79
2023/04/10 02:35:14;;;;;;;11.40;9.97;;;;;;;8.11;52.98;99355.97;6968754;28;20282;-79
2023/04/10 02:38:37;;;;;;;12.23;9.70;;;;;;;7.84;53.76;99362.66;6968553;28;20232;-77
2023/04/10 02:41:58;;;;;;;13.83;10.37;;;;;;;7.53;55.02;99377.00;6968150;28;20265;-78
2023/04/10 02:45:20;;;;;;;13.63;10.40;;;;;;;7.58;54.86;99364.78;6971384;28;20279;-77
2023/04/10 02:48:41;;;;;;;12.33;9.70;;;;;;;7.39;55.60;99380.41;6968424;28;20220;-78
2023/04/10 02:52:03;;;;;;;11.23;9.03;;;;;;;7.63;55.85;99374.97;6968188;28;20301;-78
2023/04/10 02:55:25;;;;;;;11.60;9.57;;;;;;;7.91;55.12;99381.59;6968015;28;20232;-78
2023/04/10 02:58:47;;;;;;;10.77;9.07;;;;;;;7.92;54.35;99362.63;6970318;28;20257;-78
2023/04/10 03:02:08;;;;;;;12.27;10.13;;;;;;;7.76;54.60;99367.22;6974584;28;20350;-78
2023/04/10 03:05:30;;;;;;;11.10;9.00;;;;;;;7.94;54.79;99371.34;6974826;28;20225;-79
2023/04/10 03:08:52;;;;;;;12.17;8.80;;;;;;;7.89;54.54;99381.75;6973788;28;20578;-80
2023/04/10 03:12:15;;;;;;;11.60;8.63;;;;;;;7.89;54.68;99381.75;6972511;28;20230;-78
2023/04/10 03:15:37;;;;;;;11.20;9.10;;;;;;;7.82;54.29;99374.56;6973650;28;20322;-78
2023/04/10 03:18:59;;;;;;;12.20;9.30;;;;;;;8.01;54.10;99392.97;6973743;28;20239;-79
2023/04/10 03:22:21;;;;;;;11.57;9.17;;;;;;;7.84;54.53;99384.13;6971781;28;20208;-79
2023/04/10 03:25:43;;;;;;;10.70;8.93;;;;;;;7.99;54.11;99387.75;6985104;28;20288;-78
2023/04/10 03:29:05;;;;;;;13.07;10.17;;;;;;;7.89;54.52;99380.94;7001513;28;20227;-79
2023/04/10 03:32:29;;;;;;;12.33;9.47;;;;;;;7.88;54.12;99381.91;6978685;28;20293;-78
2023/04/10 03:35:52;;;;;;;12.37;10.03;;;;;;;7.84;53.94;99367.19;6973135;28;20613;-78
2023/04/10 03:39:13;;;;;;;12.47;8.97;;;;;;;7.63;54.73;99372.28;6973059;28;20680;-79
2023/04/10 03:42:35;;;;;;;13.00;10.00;;;;;;;7.09;54.70;99362.38;6972273;28;20265;-78
2023/04/10 03:45:58;;;;;;;12.17;9.10;;;;;;;7.34;55.18;99364.84;6974136;28;20352;-78
2023/04/10 03:49:20;;;;;;;10.73;8.97;;;;;;;7.56;54.60;99356.06;6975441;28;20269;-78
2023/04/10 03:52:41;;;;;;;10.00;8.70;;;;;;;7.40;54.51;99347.22;6971423;28;20231;-78
2023/04/10 03:56:03;;;;;;;12.03;9.00;;;;;;;7.15;55.27;99342.91;6972298;28;20256;-78
2023/04/10 03:59:25;;;;;;;10.57;8.63;;;;;;;7.27;55.25;99345.09;6972391;28;20703;-78
2023/04/10 04:02:49;;;;;;;11.63;8.83;;;;;;;7.05;55.66;99355.66;6972558;28;20211;-78
2023/04/10 04:06:10;;;;;;;12.40;9.70;;;;;;;7.23;55.48;99359.81;6977583;28;20550;-78
2023/04/10 04:09:32;;;;;;;10.23;8.33;;;;;;;7.25;54.89;99360.47;6975970;28;20269;-77
2023/04/10 04:12:53;;;;;;;13.17;10.30;;;;;;;7.04;56.04;99341.44;6976948;28;20288;-78
2023/04/10 04:16:15;;;;;;;10.73;8.50;;;;;;;7.25;56.40;99355.13;6977017;28;20235;-77
2023/04/10 04:19:38;;;;;;;10.30;8.60;;;;;;;7.58;55.67;99348.66;6975735;28;20208;-78
2023/04/10 04:22:59;;;;;;;9.70;8.40;;;;;;;7.57;54.69;99348.84;6970741;28;20268;-78
2023/04/10 04:26:21;;;;;;;11.00;7.77;;;;;;;7.71;54.45;99334.72;6971672;28;20197;-78
2023/04/10 04:29:42;;;;;;;12.20;9.30;;;;;;;7.26;54.89;99343.38;6973855;28;20224;-78
2023/04/10 04:33:04;;;;;;;10.20;8.60;;;;;;;7.59;55.42;99347.66;6980562;28;20692;-78
2023/04/10 04:36:27;;;;;;;8.83;7.70;;;;;;;7.61;55.06;99344.81;6980555;28;20211;-78
2023/04/10 04:39:49;;;;;;;11.63;9.00;;;;;;;7.75;54.26;99336.88;6980310;28;20218;-78
2023/04/10 04:43:10;;;;;;;9.97;8.97;;;;;;;7.67;55.06;99339.56;6982069;28;20233;-79
2023/04/10 04:46:31;;;;;;;11.33;8.60;;;;;;;7.57;54.58;99338.94;6981533;28;20371;-80
2023/04/10 04:49:53;;;;;;;9.97;7.70;;;;;;;7.48;55.26;99344.53;6969609;28;20259;-78
2023/04/10 04:53:16;;;;;;;10.63;8.37;;;;;;;7.38;55.50;99339.31;6970008;28;20237;-79
2023/04/10 04:56:37;;;;;;;11.43;8.10;;;;;;;7.44;55.74;99327.09;6969778;28;20206;-79
2023/04/10 04:59:59;;;;;;;10.07;8.70;;;;;;;7.37;55.39;99310.84;6969349;28;20267;-78
2023/04/10 05:03:20;;;;;;;10.40;8.63;;;;;;;7.39;55.95;99332.13;6969789;28;20297;-79
2023/04/10 05:06:42;;;;;;;9.60;8.50;;;;;;;7.77;55.29;99318.72;6969774;28;20362;-78
2023/04/10 05:10:06;;;;;;;11.47;8.63;;;;;;;7.71;54.92;99323.97;6969528;28;20206;-78
2023/04/10 05:13:27;;;;;;;9.80;8.43;;;;;;;7.78;55.38;99336.50;6969662;28;20233;-78
2023/04/10 05:16:49;;;;;;;10.77;8.73;;;;;;;7.72;55.33;99336.38;6969231;28;20212;-78
2023/04/10 05:20:11;;;;;;;11.67;9.07;;;;;;;7.48;55.25;99266.72;6974688;28;20207;-80
2023/04/10 05:23:33;;;;;;;13.77;10.93;;;;;;;7.92;54.71;99311.63;6968380;28;20255;-79
2023/04/10 05:26:56;;;;;;;12.77;9.90;;;;;;;8.04;54.56;99329.00;6969061;28;20246;-79
2023/04/10 05:30:18;;;;;;;9.80;8.27;;;;;;;8.17;54.03;99326.56;6968368;28;20210;-80
2023/04/10 05:33:39;;;;;;;10.30;8.37;;;;;;;8.56;53.94;99303.16;6969476;28;20297;-79
2023/04/10 05:37:01;;;;;;;9.27;7.97;;;;;;;8.71;52.82;99322.03;6969222;28;20238;-80
2023/04/10 05:40:22;;;;;;;10.97;8.90;;;;;;;9.50;50.51;99315.00;6968677;28;20209;-80
2023/04/10 05:43:45;;;;;;;8.77;7.80;;;;;;;9.98;48.80;99319.78;6968386;28;20283;-78
2023/04/10 05:47:06;;;;;;;9.63;7.77;;;;;;;10.82;46.58;99320.72;6968753;28;20214;-79
2023/04/10 05:50:28;;;;;;;9.33;8.07;;;;;;;11.10;45.26;99312.63;6968266;28;20297;-78
2023/04/10 05:53:50;;;;;;;7.63;6.93;;;;;;;11.25;44.43;99305.25;6984314;28;20888;-78
2023/04/10 05:57:11;;;;;;;10.23;7.70;;;;;;;11.57;43.56;99310.88;6996046;28;20262;-78
2023/04/10 06:00:34;;;;;;;7.87;6.60;;;;;;;12.32;42.09;99303.53;6993050;28;20199;-78
2023/04/10 06:03:56;;;;;;;10.80;7.57;;;;;;;12.02;42.35;99321.09;6995486;28;20654;-79
2023/04/10 06:07:24;;;;;;;7.63;6.77;;;;;;;12.11;42.55;99319.06;6996500;28;20216;-78
2023/04/10 06:10:56;;;;;;;8.40;7.07;;;;;;;11.50;42.26;99201.13;6994601;28;20339;-78
2023/04/10 06:14:39;;;;;;;8.57;7.40;;;;;;;12.26;42.16;99309.75;6973747;28;20229;-78
2023/04/10 06:18:05;;;;;;;8.17;7.37;;;;;;;12.97;40.63;99306.38;6995935;28;20698;-79
2023/04/10 06:21:29;;;;;;;7.23;6.43;;;;;;;12.37;41.59;99246.97;6993825;28;20258;-79
2023/04/10 06:25:09;;;;;;;7.43;6.57;;;;;;;13.55;39.36;99301.91;6995877;28;20706;-79
2023/04/10 06:28:32;;;;;;;7.70;6.70;;;;;;;12.90;40.82;99272.19;6983339;28;20239;-78
2023/04/10 06:31:56;;;;;;;7.03;6.27;;;;;;;13.58;38.75;99298.81;6995335;28;20287;-79
2023/04/10 06:35:20;;;;;;;7.27;6.57;;;;;;;12.90;38.98;99248.66;6999469;28;20256;-80
2023/04/10 06:38:51;;;;;;;;;;;;;;;;;;;;;
2023/04/10 06:42:13;;;;;;;7.20;6.50;;;;;;;12.99;39.37;99289.91;6994344;28;20209;-79
2023/04/10 06:45:35;;;;;;;7.73;6.37;;;;;;;12.54;40.32;99269.88;6984277;28;20588;-77
2023/04/10 06:48:56;;;;;;;7.10;6.40;;;;;;;12.55;40.34;99293.19;7000303;28;20261;-82
2023/04/10 06:52:19;;;;;;;7.40;6.60;;;;;;;13.24;40.22;99282.81;6999465;28;20201;-80
2023/04/10 06:55:41;;;;;;;6.77;6.10;;;;;;;12.98;40.11;99282.84;7000353;28;20291;-79
2023/04/10 06:59:02;;;;;;;7.17;6.27;;;;;;;13.31;38.78;99281.78;7000524;28;20581;-78
2023/04/10 07:02:24;;;;;;;7.03;6.33;;;;;;;14.23;37.87;99280.41;6999105;28;20317;-79
2023/04/10 07:05:45;;;;;;;6.50;5.90;;;;;;;14.27;37.31;99286.25;6999973;28;20733;-79
2023/04/10 07:09:08;;;;;;;7.40;6.23;;;;;;;14.26;37.08;99290.00;7000132;28;20292;-79
2023/04/10 07:12:29;;;;;;;7.03;6.33;;;;;;;13.95;37.16;99288.06;6999673;28;20206;-80
2023/04/10 07:15:51;;;;;;;7.27;6.57;;;;;;;14.10;37.12;99287.78;6994871;28;20235;-79
2023/04/10 07:19:12;;;;;;;7.00;6.30;;;;;;;14.04;37.54;99284.03;6995187;28;20249;-81
2023/04/10 07:22:34;;;;;;;6.50;5.90;;;;;;;14.66;36.84;99281.41;6995837;28;20349;-80
2023/04/10 07:25:57;;;;;;;6.33;5.73;;;;;;;15.26;36.04;99288.84;6991039;28;20219;-77
2023/04/10 07:29:19;;;;;;;6.67;5.97;;;;;;;15.25;35.66;99272.78;6999103;28;20239;-80
2023/04/10 07:32:41;;;;;;;6.23;5.63;;;;;;;14.83;36.47;99284.41;6997327;28;20208;-79
2023/04/10 07:36:04;;;;;;;6.00;5.40;;;;;;;15.29;35.68;99282.97;6979437;28;20239;-79
2023/04/10 07:39:26;;;;;;;6.43;5.70;;;;;;;14.91;36.69;99274.13;6983552;28;20209;-80
2023/04/10 07:42:49;;;;;;;6.83;6.13;;;;;;;15.77;35.99;99269.53;7015660;28;20564;-80
2023/04/10 07:46:10;;;;;;;6.90;6.20;;;;;;;16.27;35.77;99276.44;7002558;28;20235;-81
2023/04/10 07:49:32;;;;;;;6.23;5.63;;;;;;;17.19;34.05;99263.94;7006308;28;20292;-81
2023/04/10 07:52:54;;;;;;;6.60;6.00;;;;;;;16.87;32.90;99272.66;7006476;28;20212;-85
2023/04/10 07:56:16;;;;;;;6.00;5.50;;;;;;;17.04;32.64;99273.63;7008509;28;20186;-81
2023/04/10 07:59:39;;;;;;;5.70;5.20;;;;;;;17.50;32.05;99265.47;7001068;28;20201;-81
2023/04/10 08:03:01;;;;;;;6.00;5.40;;;;;;;17.64;31.46;99256.81;6978366;28;20244;-82
2023/04/10 08:06:23;;;;;;;4.93;4.53;;;;;;;18.22;30.77;99218.47;6978972;28;20703;-81
2023/04/10 08:09:44;;;;;;;5.67;5.17;;;;;;;18.49;30.33;99250.41;6987338;28;20295;-82
2023/04/10 08:13:06;;;;;;;5.00;4.53;;;;;;;18.20;30.01;99223.31;6986858;28;20228;-81
2023/04/10 08:16:30;;;;;;;5.00;4.53;;;;;;;17.09;31.33;99257.38;6979107;28;20683;-81
2023/04/10 08:19:52;;;;;;;5.73;4.73;;;;;;;17.87;30.97;99250.50;6978007;28;20843;-81
2023/04/10 08:23:13;;;;;;;5.20;4.67;;;;;;;18.23;29.67;99247.41;6977096;28;20577;-82
2023/04/10 08:26:35;;;;;;;5.03;4.63;;;;;;;18.25;28.75;99245.25;6977061;28;20194;-82
2023/04/10 08:29:56;;;;;;;5.10;4.60;;;;;;;18.73;29.20;99248.38;6976674;28;20730;-81
2023/04/10 08:33:19;;;;;;;4.73;4.33;;;;;;;18.69;28.42;99241.78;6976645;28;20238;-81
2023/04/10 08:36:40;;;;;;;4.57;4.17;;;;;;;17.78;28.44;99221.94;6976894;28;20217;-81
2023/04/10 08:40:02;;;;;;;4.73;4.33;;;;;;;18.21;29.60;99244.13;6976162;28;20734;-81
2023/04/10 08:43:24;;;;;;;4.57;4.17;;;;;;;17.74;29.79;99246.13;6976102;28;20235;-81
2023/04/10 08:46:45;;;;;;;4.43;4.03;;;;;;;18.69;29.12;99242.59;6977202;28;20277;-81
2023/04/10 08:50:11;;;;;;;4.40;4.00;;;;;;;18.84;28.40;99210.06;6975480;28;20213;-81
2023/04/10 08:53:36;;;;;;;4.77;4.37;;;;;;;19.38;27.36;99216.66;6974799;28;20254;-81
2023/04/10 08:57:00;;;;;;;4.73;4.30;;;;;;;18.50;28.56;99238.41;6975008;28;20247;-81
2023/04/10 09:00:21;;;;;;;5.17;4.67;;;;;;;18.77;28.29;99238.63;6974451;28;20206;-81
2023/04/10 09:03:43;;;;;;;4.13;3.80;;;;;;;19.37;27.77;99234.16;6975215;28;20314;-81
2023/04/10 09:07:07;;;;;;;4.07;3.73;;;;;;;20.00;27.65;99224.38;6974417;28;20553;-81
2023/04/10 09:10:29;;;;;;;4.30;3.90;;;;;;;19.73;27.32;99231.69;6974181;28;20206;-82
2023/04/10 09:13:50;;;;;;;4.17;3.80;;;;;;;18.56;28.71;99239.31;6973304;28;20321;-81
2023/04/10 09:17:15;;;;;;;4.17;3.77;;;;;;;19.44;25.82;99221.97;6974022;28;20280;-81
2023/04/10 09:20:36;;;;;;;4.23;3.93;;;;;;;18.93;27.41;99232.34;6971052;28;20212;-81
2023/04/10 09:24:01;;;;;;;4.63;4.23;;;;;;;19.07;27.00;99188.03;6973501;28;20287;-81
2023/04/10 09:27:33;;;;;;;4.20;3.80;;;;;;;19.82;26.74;99221.94;6975832;28;20217;-82
2023/04/10 09:30:55;;;;;;;4.30;3.90;;;;;;;20.24;26.30;99214.84;6972389;28;20273;-82
2023/04/10 09:34:18;;;;;;;4.10;3.80;;;;;;;19.96;25.58;99205.97;6972884;28;20235;-81
2023/04/10 09:37:41;;;;;;;3.93;3.63;;;;;;;20.51;26.90;99203.88;6972348;28;20736;-81
2023/04/10 09:41:08;;;;;;;4.50;3.60;;;;;;;20.91;25.60;99212.50;6971286;28;20210;-81
2023/04/10 09:44:31;;;;;;;4.10;3.70;;;;;;;21.52;24.97;99201.69;6977096;28;20231;-82
2023/04/10 09:48:03;;;;;;;3.97;3.63;;;;;;;20.33;25.98;99191.38;6998498;28;20271;-81
2023/04/10 09:51:29;;;;;;;3.97;3.57;;;;;;;21.02;25.37;99178.59;6998735;28;20238;-82
2023/04/10 09:54:51;;;;;;;4.20;3.80;;;;;;;21.23;25.82;99167.47;6999161;28;20236;-81
2023/04/10 09:58:14;;;;;;;3.90;3.60;;;;;;;20.42;25.51;99162.44;6999111;28;20536;-81
2023/04/10 10:01:37;;;;;;;4.07;3.67;;;;;;;20.70;25.37;99114.72;6998729;28;20210;-81
2023/04/10 10:05:00;;;;;;;3.93;3.63;;;;;;;22.30;24.45;99143.81;6998874;28;20280;-81
2023/04/10 10:08:22;;;;;;;3.87;3.53;;;;;;;21.49;23.79;99119.91;6998084;28;20213;-81
2023/04/10 10:11:44;;;;;;;3.73;3.43;;;;;;;21.24;24.42;99145.28;6999402;28;20222;-81
2023/04/10 10:15:09;;;;;;;3.60;3.30;;;;;;;20.63;24.31;99139.59;6999722;28;20235;-81
2023/04/10 10:18:38;;;;;;;3.53;3.23;;;;;;;20.83;24.77;99132.38;6999109;28;20191;-81
2023/04/10 10:22:00;;;;;;;3.37;3.13;;;;;;;21.29;23.87;99128.03;7007260;28;20281;-81
2023/04/10 10:25:22;;;;;;;3.37;3.07;;;;;;;20.77;24.32;99094.25;6998105;28;20315;-83
2023/04/10 10:28:46;;;;;;;3.57;3.27;;;;;;;21.87;24.67;99123.13;6997217;28;20291;-82
2023/04/10 10:32:11;;;;;;;3.37;3.07;;;;;;;21.74;22.79;99126.38;6995838;28;20218;-83
2023/04/10 10:35:34;;;;;;;3.70;3.40;;;;;;;21.02;24.65;99119.09;6997907;28;20243;-82
2023/04/10 10:39:04;;;;;;;3.40;3.10;;;;;;;21.68;23.82;99068.97;6998752;28;20667;-85
2023/04/10 10:42:33;;;;;;;4.27;3.27;;;;;;;21.95;23.39;99075.91;6987715;28;20704;-81
2023/04/10 10:45:58;;;;;;;3.53;3.23;;;;;;;21.80;23.73;99095.09;6995798;28;20700;-82
2023/04/10 10:49:21;;;;;;;4.33;3.93;;;;;;;21.28;24.20;99066.03;6996573;28;20332;-80
2023/04/10 10:52:44;;;;;;;2.93;2.73;;;;;;;21.09;23.13;99089.53;6995402;28;20661;-78
2023/04/10 10:56:34;;;;;;;3.17;2.77;;;;;;;22.39;22.94;99081.72;6995844;28;20326;-81
2023/04/10 10:59:56;;;;;;;3.10;2.90;;;;;;;22.33;21.78;99055.34;6993354;28;20231;-78
2023/04/10 11:03:27;;;;;;;2.90;2.70;;;;;;;22.99;22.06;99044.03;6997059;28;20232;-82
2023/04/10 11:06:51;;;;;;;3.70;3.40;;;;;;;23.25;22.38;99053.06;6982820;28;20575;-82
2023/04/10 11:10:13;;;;;;;2.90;2.70;;;;;;;22.97;21.83;99038.00;6967151;28;20210;-80
2023/04/10 11:13:35;;;;;;;7.40;5.00;;;;;;;23.50;20.92;99052.94;6979818;28;20703;-83
2023/04/10 11:16:57;;;;;;;2.47;2.37;;;;;;;23.54;19.86;99054.84;6995882;28;20296;-80
2023/04/10 11:20:20;;;;;;;2.33;2.13;;;;;;;23.69;19.76;99045.69;6996655;28;20258;-79
2023/04/10 11:24:03;;;;;;;2.67;2.47;;;;;;;23.13;20.56;99034.06;7000298;28;20276;-79
2023/04/10 11:27:51;;;;;;;2.63;2.43;;;;;;;23.65;20.42;99034.41;7000982;28;20199;-83
2023/04/10 11:31:18;;;;;;;2.50;2.30;;;;;;;24.21;18.96;99035.75;7000585;28;20245;-80
2023/04/10 11:34:44;;;;;;;3.20;3.00;;;;;;;24.79;19.59;99022.84;7001497;28;20240;-82
2023/04/10 11:38:16;;;;;;;3.30;2.30;;;;;;;24.30;18.90;99031.25;7001962;28;20205;-84
2023/04/10 11:41:40;;;;;;;2.97;2.77;;;;;;;24.59;18.96;99015.59;7002339;28;20427;-81
2023/04/10 11:45:26;;;;;;;2.83;2.60;;;;;;;25.24;18.47;99016.84;7007090;28;20721;-82
2023/04/10 11:48:52;;;;;;;2.53;2.33;;;;;;;24.57;18.36;99025.25;7006252;28;20682;-82
2023/04/10 11:52:24;;;;;;;2.70;2.50;;;;;;;24.69;19.04;99023.78;7007521;28;20245;-81
2023/04/10 11:55:46;;;;;;;3.00;2.70;;;;;;;24.03;18.95;99022.66;7007435;28;20253;-80
2023/04/10 11:59:09;;;;;;;2.40;2.27;;;;;;;23.71;18.96;99003.00;7025909;28;20211;-82
2023/04/10 12:02:31;;;;;;;2.40;2.30;;;;;;;23.23;18.71;99005.72;7018312;28;20201;-81
2023/04/10 12:05:52;;;;;;;2.50;2.30;;;;;;;23.01;18.98;99016.25;7008719;28;20281;-81
2023/04/10 12:09:16;;;;;;;2.20;2.10;;;;;;;24.20;19.25;99001.00;7009445;28;20337;-80
2023/04/10 12:12:37;;;;;;;2.43;2.20;;;;;;;25.19;19.03;98987.31;7006474;28;20208;-82
2023/04/10 12:16:01;;;;;;;2.40;2.20;;;;;;;24.52;17.46;98972.88;7007550;28;20329;-80
2023/04/10 12:19:23;;;;;;;2.20;2.10;;;;;;;24.47;18.99;98975.69;7007928;28;20285;-81
2023/04/10 12:22:45;;;;;;;2.00;1.90;;;;;;;23.33;18.57;98965.25;7006826;28;20217;-81
2023/04/10 12:26:12;;;;;;;1.90;1.70;;;;;;;23.00;17.56;98965.91;7003591;28;20226;-80
2023/04/10 12:29:34;;;;;;;2.10;2.00;;;;;;;24.19;18.52;98949.75;7001450;28;20190;-79
2023/04/10 12:32:56;;;;;;;2.13;1.97;;;;;;;24.58;18.37;98958.78;7016086;28;20197;-80
2023/04/10 12:36:21;;;;;;;2.10;2.00;;;;;;;25.05;16.94;98955.22;7022344;28;20310;-79
2023/04/10 12:39:43;;;;;;;1.87;1.67;;;;;;;24.32;16.22;98935.34;7001855;28;20206;-79
2023/04/10 12:43:04;;;;;;;1.63;1.53;;;;;;;25.27;15.90;98950.84;6998780;28;20208;-79
2023/04/10 12:46:28;;;;;;;2.07;1.97;;;;;;;24.64;16.95;98941.09;7000384;28;20563;-82
2023/04/10 12:50:08;;;;;;;1.83;1.73;;;;;;;23.28;18.34;98943.25;7001296;28;20309;-80
2023/04/10 12:53:30;;;;;;;1.80;1.70;;;;;;;23.92;17.35;98934.84;6999500;28;20857;-79
2023/04/10 12:56:52;;;;;;;1.77;1.67;;;;;;;23.83;17.87;98929.09;6999613;28;20231;-79
2023/04/10 13:00:17;;;;;;;2.10;2.00;;;;;;;24.11;17.89;98919.25;6998839;28;20615;-80
2023/04/10 13:03:39;;;;;;;1.90;1.80;;;;;;;23.45;18.57;98927.19;7000356;28;20228;-80
2023/04/10 13:07:02;;;;;;;3.70;2.40;;;;;;;23.77;19.94;98926.69;7000569;28;20200;-80
2023/04/10 13:10:24;;;;;;;2.27;2.10;;;;;;;23.99;19.50;98921.56;6999753;28;20295;-80
2023/04/10 13:13:47;;;;;;;2.23;2.03;;;;;;;23.15;18.91;98905.34;6999386;28;20231;-80
2023/04/10 13:17:08;;;;;;;2.40;2.20;;;;;;;22.74;18.48;98870.88;6998368;28;20228;-80
2023/04/10 13:20:30;;;;;;;2.40;2.20;;;;;;;23.38;18.81;98914.84;6998184;28;20202;-80
2023/04/10 13:23:53;;;;;;;2.30;2.10;;;;;;;23.74;18.95;98914.34;6998506;28;20764;-80
2023/04/10 13:27:14;;;;;;;2.60;2.40;;;;;;;23.82;17.76;98913.69;6999335;28;20206;-80
2023/04/10 13:30:37;;;;;;;2.57;2.37;;;;;;;24.56;17.66;98894.84;6999631;28;20647;-81
2023/04/10 13:33:58;;;;;;;2.30;2.10;;;;;;;24.29;18.10;98886.28;6998316;28;20264;-82
2023/04/10 13:37:20;;;;;;;2.50;2.30;;;;;;;24.68;18.96;98883.41;6999613;28;20223;-80
2023/04/10 13:40:42;;;;;;;1.97;1.87;;;;;;;24.34;18.20;98886.25;6999737;28;20208;-80
2023/04/10 13:44:04;;;;;;;2.00;1.90;;;;;;;24.10;18.27;98890.91;7001347;28;20230;-80
2023/04/10 13:47:25;;;;;;;1.80;1.70;;;;;;;23.91;19.24;98878.97;7003921;28;20242;-80
2023/04/10 13:50:47;;;;;;;1.80;1.70;;;;;;;22.58;19.61;98883.03;7002986;28;20657;-81
2023/04/10 13:54:09;;;;;;;1.80;1.70;;;;;;;22.64;20.21;98879.16;7004297;28;20697;-81
2023/04/10 13:57:33;;;;;;;2.00;1.90;;;;;;;23.39;18.88;98873.28;7004134;28;20227;-82
2023/04/10 14:00:54;;;;;;;1.80;1.70;;;;;;;23.65;18.69;98873.94;7003895;28;20213;-80
2023/04/10 14:04:16;;;;;;;2.10;2.00;;;;;;;23.90;18.43;98879.25;7003587;28;20660;-80
2023/04/10 14:07:37;;;;;;;2.13;1.90;;;;;;;24.01;18.60;98865.09;7003366;28;20225;-82
2023/04/10 14:10:59;;;;;;;2.10;2.00;;;;;;;23.73;18.65;98867.78;7003779;28;20296;-80
2023/04/10 14:14:23;;;;;;;1.90;1.80;;;;;;;24.30;18.54;98857.63;7002842;28;20366;-80
2023/04/10 14:17:45;;;;;;;2.00;1.90;;;;;;;23.49;18.69;98858.63;7003095;28;20250;-80
2023/04/10 14:21:07;;;;;;;1.90;1.80;;;;;;;23.49;18.92;98837.41;7003883;28;20215;-80
2023/04/10 14:24:28;;;;;;;2.23;2.03;;;;;;;23.44;19.45;98850.41;7001155;28;20601;-81
2023/04/10 14:27:50;;;;;;;1.70;1.60;;;;;;;23.46;18.24;98848.19;6999231;28;20198;-80
2023/04/10 14:31:12;;;;;;;1.83;1.73;;;;;;;23.74;18.66;98833.66;6999298;28;20637;-80
2023/04/10 14:34:34;;;;;;;2.03;1.93;;;;;;;22.90;19.54;98798.19;7000612;28;20736;-80
2023/04/10 14:37:55;;;;;;;2.20;2.10;;;;;;;23.44;18.78;98831.16;6998105;28;20582;-81
2023/04/10 14:41:17;;;;;;;2.30;2.10;;;;;;;23.75;19.28;98816.84;6994992;28;20214;-80
2023/04/10 14:44:38;;;;;;;1.90;1.70;;;;;;;24.23;18.79;98821.31;6998002;28;20245;-82
2023/04/10 14:48:02;;;;;;;2.23;2.07;;;;;;;23.12;18.40;98823.38;7001104;28;20204;-81
2023/04/10 14:51:23;;;;;;;2.20;2.03;;;;;;;23.58;18.42;98819.19;6985674;28;20210;-81
2023/04/10 14:54:44;;;;;;;2.33;2.17;;;;;;;24.11;19.10;98811.81;6994411;28;20223;-81
2023/04/10 14:58:07;;;;;;;2.27;2.07;;;;;;;24.06;17.95;98804.44;7002516;28;20674;-81
2023/04/10 15:01:29;;;;;;;2.13;2.00;;;;;;;24.14;18.28;98797.47;7002971;28;20736;-81
2023/04/10 15:04:52;;;;;;;2.10;2.00;;;;;;;24.03;18.85;98783.00;7004510;28;20230;-81
2023/04/10 15:08:13;;;;;;;2.10;2.00;;;;;;;23.48;18.66;98794.50;7003659;28;20706;-81
2023/04/10 15:11:35;;;;;;;2.20;2.00;;;;;;;23.96;18.57;98781.69;7002335;28;20258;-79
2023/04/10 15:14:57;;;;;;;1.83;1.73;;;;;;;24.06;17.95;98779.63;7006745;28;20316;-80
2023/04/10 15:18:19;;;;;;;1.83;1.73;;;;;;;24.56;18.29;98786.47;7007519;28;20209;-81
2023/04/10 15:21:42;;;;;;;1.80;1.70;;;;;;;24.00;18.71;98778.06;7006640;28;20235;-81
2023/04/10 15:25:04;;;;;;;2.13;2.03;;;;;;;23.89;17.94;98767.44;7004239;28;20236;-81
2023/04/10 15:28:26;;;;;;;1.97;1.87;;;;;;;24.14;18.09;98772.66;7004966;28;20643;-81
2023/04/10 15:31:49;;;;;;;2.17;2.03;;;;;;;23.87;18.89;98767.72;7005074;28;20833;-80
2023/04/10 15:35:11;;;;;;;2.30;1.97;;;;;;;23.52;18.96;98764.47;7002584;28;20227;-83
2023/04/10 15:38:35;;;;;;;2.00;1.90;;;;;;;23.53;19.16;98750.41;7005350;28;20332;-81
2023/04/10 15:41:57;;;;;;;2.00;1.90;;;;;;;23.70;18.11;98749.97;7003318;28;20215;-80
2023/04/10 15:45:18;;;;;;;2.00;1.90;;;;;;;23.85;18.09;98750.66;7004103;28;20242;-82
2023/04/10 15:48:40;;;;;;;2.00;1.90;;;;;;;23.77;18.72;98750.47;6997207;28;20210;-80
2023/04/10 15:52:01;;;;;;;2.40;2.00;;;;;;;23.65;19.79;98733.53;6979931;28;20194;-81
2023/04/10 15:55:24;;;;;;;1.73;1.63;;;;;;;23.52;20.14;98726.75;7003458;28;20234;-81
2023/04/10 15:58:46;;;;;;;2.10;2.00;;;;;;;23.29;20.00;98719.28;7001926;28;20209;-82